Time;durP1;ratioP1;P1;durP2;ratioP2;P2;SDS_P1;SDS_P2;PMS_P1;PMS_P2;Temp;Humidity;BMP_temperature;BMP_pressure;BME280_temperature;BME280_humidity;BME280_pressure;Samples;Min_cycle;Max_cycle;Signal;HPM_P1;HPM_P2
2022/10/10 00:01:13;;;;;;;16.95;3.22;;;;;;;;;;5042723;28;20087;-77
2022/10/10 00:03:39;;;;;;;22.73;2.80;;;;;;;;;;5043499;28;20033;-76
2022/10/10 00:06:05;;;;;;;10.40;2.58;;;;;;;;;;5043460;28;20026;-75
2022/10/10 00:08:31;;;;;;;11.68;2.92;;;;;;;;;;5026166;28;20356;-76
2022/10/10 00:10:57;;;;;;;15.48;2.50;;;;;;;;;;5044163;28;20157;-76
2022/10/10 00:13:23;;;;;;;10.70;2.63;;;;;;;;;;5044698;28;20037;-75
2022/10/10 00:15:49;;;;;;;14.80;2.92;;;;;;;;;;5044620;28;20085;-74
2022/10/10 00:18:16;;;;;;;13.40;2.97;;;;;;;;;;5023404;28;20076;-76
2022/10/10 00:20:42;;;;;;;22.10;3.03;;;;;;;;;;5035959;28;20029;-75
2022/10/10 00:23:08;;;;;;;18.67;3.33;;;;;;;;;;5035596;28;20033;-76
2022/10/10 00:25:34;;;;;;;14.05;2.63;;;;;;;;;;5018572;28;20121;-75
2022/10/10 00:28:04;;;;;;;12.63;2.75;;;;;;;;;;5018184;28;20066;-75
2022/10/10 00:30:30;;;;;;;14.77;2.60;;;;;;;;;;5024311;28;20025;-76
2022/10/10 00:33:00;;;;;;;22.23;3.90;;;;;;;;;;5045317;28;20403;-76
2022/10/10 00:35:26;;;;;;;11.80;2.90;;;;;;;;;;5044377;28;20025;-75
2022/10/10 00:37:52;;;;;;;12.05;2.53;;;;;;;;;;5022886;28;20022;-76
2022/10/10 00:40:18;;;;;;;25.08;3.03;;;;;;;;;;5035403;28;20072;-77
2022/10/10 00:42:44;;;;;;;16.83;3.30;;;;;;;;;;5034459;28;20038;-76
2022/10/10 00:45:22;;;;;;;15.25;2.70;;;;;;;;;;5017205;28;20336;-76
2022/10/10 00:47:49;;;;;;;15.15;2.95;;;;;;;;;;5016895;28;20060;-76
2022/10/10 00:50:15;;;;;;;18.90;3.08;;;;;;;;;;5016613;28;20474;-76
2022/10/10 00:52:41;;;;;;;10.82;2.92;;;;;;;;;;5036758;28;20033;-76
2022/10/10 00:55:07;;;;;;;15.43;2.95;;;;;;;;;;5038824;28;20032;-75
2022/10/10 00:57:33;;;;;;;13.90;2.50;;;;;;;;;;5034122;28;20029;-75
2022/10/10 01:00:00;;;;;;;12.30;2.65;;;;;;;;;;5036456;28;20460;-77
2022/10/10 01:02:26;;;;;;;11.70;2.70;;;;;;;;;;5040815;28;20076;-77
2022/10/10 01:04:52;;;;;;;18.05;2.78;;;;;;;;;;5034527;28;20029;-76
2022/10/10 01:07:23;;;;;;;9.35;2.70;;;;;;;;;;5036632;28;20498;-76
2022/10/10 01:09:51;;;;;;;16.30;2.50;;;;;;;;;;5041575;28;20064;-77
2022/10/10 01:12:37;;;;;;;15.55;3.03;;;;;;;;;;5039340;28;20029;-76
2022/10/10 01:15:06;;;;;;;14.98;2.95;;;;;;;;;;5035754;28;20033;-76
2022/10/10 01:17:34;;;;;;;20.35;3.20;;;;;;;;;;5039555;28;20038;-75
2022/10/10 01:20:06;;;;;;;9.10;2.40;;;;;;;;;;5037019;28;20521;-77
2022/10/10 01:22:39;;;;;;;17.27;2.88;;;;;;;;;;5020981;28;20390;-76
2022/10/10 01:25:22;;;;;;;11.70;3.00;;;;;;;;;;5034346;28;20030;-75
2022/10/10 01:27:53;;;;;;;8.98;2.15;;;;;;;;;;5034589;28;20467;-76
2022/10/10 01:30:21;;;;;;;17.45;3.28;;;;;;;;;;5034551;28;20198;-76
2022/10/10 01:32:50;;;;;;;13.05;2.70;;;;;;;;;;5034451;28;20030;-76
2022/10/10 01:35:19;;;;;;;17.02;3.03;;;;;;;;;;5054577;28;20037;-75
2022/10/10 01:37:48;;;;;;;11.80;2.70;;;;;;;;;;5044302;28;20427;-76
2022/10/10 01:40:19;;;;;;;17.65;3.13;;;;;;;;;;5034385;28;20040;-77
2022/10/10 01:42:51;;;;;;;15.52;3.45;;;;;;;;;;5034617;28;20032;-76
2022/10/10 01:45:17;;;;;;;19.48;2.90;;;;;;;;;;5034904;28;20021;-75
2022/10/10 01:47:43;;;;;;;14.93;3.17;;;;;;;;;;5035474;28;20079;-77
2022/10/10 01:50:11;;;;;;;17.05;3.35;;;;;;;;;;5035148;28;20029;-76
2022/10/10 01:52:44;;;;;;;11.25;2.65;;;;;;;;;;5036547;28;20335;-76
2022/10/10 01:55:29;;;;;;;15.20;4.07;;;;;;;;;;5016394;28;20152;-76
2022/10/10 01:58:14;;;;;;;11.63;3.22;;;;;;;;;;5015443;28;20030;-76
2022/10/10 02:01:06;;;;;;;12.27;2.90;;;;;;;;;;5015249;28;20037;-77
2022/10/10 02:03:36;;;;;;;11.52;3.20;;;;;;;;;;4995485;28;20056;-76
2022/10/10 02:06:21;;;;;;;17.13;3.75;;;;;;;;;;5032925;28;20025;-76
2022/10/10 02:08:50;;;;;;;12.20;3.25;;;;;;;;;;5033010;28;20480;-76
2022/10/10 02:11:16;;;;;;;14.32;2.92;;;;;;;;;;5033220;28;20077;-74
2022/10/10 02:13:48;;;;;;;15.50;3.25;;;;;;;;;;5033274;28;20029;-77
2022/10/10 02:16:15;;;;;;;20.90;3.40;;;;;;;;;;5015386;28;20037;-76
2022/10/10 02:18:44;;;;;;;14.88;3.38;;;;;;;;;;5033490;28;20030;-77
2022/10/10 02:21:11;;;;;;;17.05;3.10;;;;;;;;;;5033155;28;20367;-77
2022/10/10 02:23:37;;;;;;;16.48;3.08;;;;;;;;;;5015641;28;20025;-76
2022/10/10 02:26:04;;;;;;;12.65;3.05;;;;;;;;;;5016026;28;20032;-76
2022/10/10 02:28:48;;;;;;;12.77;3.30;;;;;;;;;;5034652;28;20083;-76
2022/10/10 02:31:16;;;;;;;19.80;3.10;;;;;;;;;;5034203;28;20040;-76
2022/10/10 02:34:02;;;;;;;15.00;3.17;;;;;;;;;;5034051;28;20037;-76
2022/10/10 02:36:29;;;;;;;14.95;3.13;;;;;;;;;;5018768;28;20041;-77
2022/10/10 02:38:55;;;;;;;15.77;3.30;;;;;;;;;;5036168;28;20425;-76
2022/10/10 02:41:22;;;;;;;14.65;3.20;;;;;;;;;;5033385;28;20026;-76
2022/10/10 02:43:49;;;;;;;11.95;2.78;;;;;;;;;;5034683;28;20025;-77
2022/10/10 02:46:15;;;;;;;15.15;2.97;;;;;;;;;;5038825;28;20037;-77
2022/10/10 02:48:42;;;;;;;14.10;3.78;;;;;;;;;;5052023;28;20048;-76
2022/10/10 02:51:08;;;;;;;17.60;3.90;;;;;;;;;;5052094;28;20037;-76
2022/10/10 02:53:36;;;;;;;23.65;3.72;;;;;;;;;;5055700;28;20029;-75
2022/10/10 02:56:01;;;;;;;16.80;4.07;;;;;;;;;;5036767;28;20041;-76
2022/10/10 02:58:27;;;;;;;14.32;2.92;;;;;;;;;;5053560;28;20033;-76
2022/10/10 03:00:53;;;;;;;15.90;3.55;;;;;;;;;;5051258;28;20076;-75
2022/10/10 03:03:19;;;;;;;13.48;3.30;;;;;;;;;;5033655;28;20103;-76
2022/10/10 03:05:45;;;;;;;11.02;3.20;;;;;;;;;;5050802;28;20025;-75
2022/10/10 03:08:12;;;;;;;18.45;3.60;;;;;;;;;;5030487;28;20475;-77
2022/10/10 03:10:38;;;;;;;13.02;3.50;;;;;;;;;;5024097;28;20437;-76
2022/10/10 03:13:04;;;;;;;18.55;3.10;;;;;;;;;;5026118;28;20017;-76
2022/10/10 03:15:30;;;;;;;12.93;3.80;;;;;;;;;;5049586;28;20029;-77
2022/10/10 03:17:56;;;;;;;18.20;3.20;;;;;;;;;;5039481;28;20083;-75
2022/10/10 03:20:22;;;;;;;14.75;3.35;;;;;;;;;;5032850;28;20418;-76
2022/10/10 03:22:48;;;;;;;19.58;3.85;;;;;;;;;;5033192;28;20108;-76
2022/10/10 03:25:14;;;;;;;14.68;3.90;;;;;;;;;;5033066;28;20053;-77
2022/10/10 03:27:40;;;;;;;17.25;3.85;;;;;;;;;;5033862;28;20025;-77
2022/10/10 03:30:06;;;;;;;21.52;4.15;;;;;;;;;;5036980;28;20355;-76
2022/10/10 03:32:32;;;;;;;13.13;3.22;;;;;;;;;;5036873;28;20079;-77
2022/10/10 03:34:58;;;;;;;13.75;3.65;;;;;;;;;;5036459;28;20120;-76
2022/10/10 03:37:24;;;;;;;12.20;3.60;;;;;;;;;;5036263;28;20037;-76
2022/10/10 03:39:50;;;;;;;18.05;3.45;;;;;;;;;;5037740;28;20033;-76
2022/10/10 03:42:16;;;;;;;12.85;3.40;;;;;;;;;;5038768;28;20084;-76
2022/10/10 03:44:42;;;;;;;12.05;3.47;;;;;;;;;;5037942;28;20022;-75
2022/10/10 03:47:08;;;;;;;9.80;3.30;;;;;;;;;;5037954;28;20029;-76
2022/10/10 03:49:33;;;;;;;19.70;3.78;;;;;;;;;;5038308;28;20026;-75
2022/10/10 03:52:00;;;;;;;23.13;4.60;;;;;;;;;;5036476;28;20029;-75
2022/10/10 03:54:26;;;;;;;11.75;3.85;;;;;;;;;;5019648;28;20017;-77
2022/10/10 03:56:52;;;;;;;27.35;4.68;;;;;;;;;;5018953;28;20083;-76
2022/10/10 03:59:18;;;;;;;18.73;4.68;;;;;;;;;;5036380;28;20372;-75
2022/10/10 04:01:44;;;;;;;16.20;3.80;;;;;;;;;;5035071;28;20033;-75
2022/10/10 04:04:10;;;;;;;20.20;4.03;;;;;;;;;;5017691;28;20026;-74
2022/10/10 04:06:36;;;;;;;26.38;4.40;;;;;;;;;;5035186;28;20026;-75
2022/10/10 04:09:03;;;;;;;19.58;3.60;;;;;;;;;;5036357;28;20021;-75
2022/10/10 04:11:29;;;;;;;16.30;4.18;;;;;;;;;;5035762;28;20044;-76
2022/10/10 04:13:55;;;;;;;16.48;3.92;;;;;;;;;;5037810;28;20395;-77
2022/10/10 04:16:21;;;;;;;26.13;5.93;;;;;;;;;;5038321;28;20040;-76
2022/10/10 04:18:47;;;;;;;32.38;12.27;;;;;;;;;;5022047;28;20017;-77
2022/10/10 04:21:13;;;;;;;13.93;4.50;;;;;;;;;;5038736;28;20034;-76
2022/10/10 04:23:40;;;;;;;15.80;4.00;;;;;;;;;;5022507;28;20018;-76
2022/10/10 04:26:06;;;;;;;17.90;4.22;;;;;;;;;;5024003;28;20029;-76
2022/10/10 04:28:32;;;;;;;20.48;5.15;;;;;;;;;;5047351;28;20029;-75
2022/10/10 04:30:58;;;;;;;24.85;5.82;;;;;;;;;;5053057;28;20097;-76
2022/10/10 04:33:24;;;;;;;16.40;4.68;;;;;;;;;;5040195;28;20025;-75
2022/10/10 04:35:50;;;;;;;13.57;4.50;;;;;;;;;;5058479;28;20060;-77
2022/10/10 04:38:18;;;;;;;12.32;4.03;;;;;;;;;;5057648;28;20036;-75
2022/10/10 04:40:44;;;;;;;18.25;4.20;;;;;;;;;;5056366;28;20017;-74
2022/10/10 04:43:10;;;;;;;15.55;4.13;;;;;;;;;;5038166;28;20072;-75
2022/10/10 04:45:36;;;;;;;20.45;4.35;;;;;;;;;;5055697;28;20040;-75
2022/10/10 04:48:02;;;;;;;33.78;8.85;;;;;;;;;;5037531;28;20029;-76
2022/10/10 04:50:28;;;;;;;19.85;6.45;;;;;;;;;;5055781;28;20017;-76
2022/10/10 04:52:54;;;;;;;18.15;4.28;;;;;;;;;;5054463;28;20057;-75
2022/10/10 04:55:20;;;;;;;18.77;5.13;;;;;;;;;;5055308;28;20085;-75
2022/10/10 04:57:46;;;;;;;21.30;4.22;;;;;;;;;;5054233;28;20044;-74
2022/10/10 05:00:12;;;;;;;18.13;5.43;;;;;;;;;;5057187;28;20030;-74
2022/10/10 05:02:38;;;;;;;23.13;6.43;;;;;;;;;;5056614;28;20071;-76
2022/10/10 05:05:04;;;;;;;13.55;4.32;;;;;;;;;;5036133;28;20029;-75
2022/10/10 05:07:30;;;;;;;16.73;4.20;;;;;;;;;;5036560;28;20494;-77
2022/10/10 05:09:56;;;;;;;15.35;4.35;;;;;;;;;;5024460;28;20338;-76
2022/10/10 05:12:22;;;;;;;15.52;4.82;;;;;;;;;;5017251;28;20052;-77
2022/10/10 05:14:48;;;;;;;12.80;4.10;;;;;;;;;;5035898;28;20151;-76
2022/10/10 05:17:14;;;;;;;11.90;4.38;;;;;;;;;;5035792;28;20025;-75
2022/10/10 05:19:40;;;;;;;19.38;4.68;;;;;;;;;;5035596;28;20114;-76
2022/10/10 05:22:06;;;;;;;14.48;4.25;;;;;;;;;;5035549;28;20029;-75
2022/10/10 05:24:32;;;;;;;14.52;4.53;;;;;;;;;;5036165;28;20124;-76
2022/10/10 05:26:58;;;;;;;12.38;4.18;;;;;;;;;;5055420;28;20093;-76
2022/10/10 05:29:24;;;;;;;20.63;4.65;;;;;;;;;;5046704;28;20042;-76
2022/10/10 05:31:50;;;;;;;23.55;4.43;;;;;;;;;;5019719;28;20021;-76
2022/10/10 05:34:16;;;;;;;19.60;4.78;;;;;;;;;;5023664;28;20094;-75
2022/10/10 05:36:42;;;;;;;15.50;4.10;;;;;;;;;;5023620;28;20029;-76
2022/10/10 05:39:08;;;;;;;17.75;5.40;;;;;;;;;;5040064;28;20031;-76
2022/10/10 05:41:34;;;;;;;17.20;4.93;;;;;;;;;;5039777;28;20095;-76
2022/10/10 05:44:00;;;;;;;14.23;4.70;;;;;;;;;;5042751;28;20033;-75
2022/10/10 05:46:26;;;;;;;17.50;5.35;;;;;;;;;;5028394;28;20025;-75
2022/10/10 05:48:52;;;;;;;20.00;6.88;;;;;;;;;;5038854;28;20427;-75
2022/10/10 05:51:19;;;;;;;17.33;5.78;;;;;;;;;;5040135;28;20034;-76
2022/10/10 05:53:45;;;;;;;18.88;5.22;;;;;;;;;;5052797;28;20061;-74
2022/10/10 05:56:11;;;;;;;26.95;5.45;;;;;;;;;;5052385;28;20391;-77
2022/10/10 05:58:37;;;;;;;15.23;4.82;;;;;;;;;;5052569;28;20073;-76
2022/10/10 06:01:04;;;;;;;15.52;5.28;;;;;;;;;;5034587;28;20022;-76
2022/10/10 06:03:30;;;;;;;14.75;4.95;;;;;;;;;;5035640;28;20014;-77
2022/10/10 06:05:56;;;;;;;15.13;5.10;;;;;;;;;;5057087;28;20041;-76
2022/10/10 06:08:22;;;;;;;17.52;4.53;;;;;;;;;;5039524;28;20025;-74
2022/10/10 06:10:49;;;;;;;22.17;5.20;;;;;;;;;;5039231;28;20105;-75
2022/10/10 06:13:16;;;;;;;20.00;5.10;;;;;;;;;;5055635;28;20021;-76
2022/10/10 06:15:42;;;;;;;18.80;5.05;;;;;;;;;;5051720;28;20021;-75
2022/10/10 06:18:09;;;;;;;15.73;4.53;;;;;;;;;;5018404;28;20566;-76
2022/10/10 06:20:35;;;;;;;18.40;5.13;;;;;;;;;;5036624;28;20029;-76
2022/10/10 06:23:02;;;;;;;16.60;4.65;;;;;;;;;;5027337;28;20033;-75
2022/10/10 06:25:28;;;;;;;16.27;5.18;;;;;;;;;;5038043;28;20044;-75
2022/10/10 06:27:54;;;;;;;18.20;5.07;;;;;;;;;;5016888;28;20474;-75
2022/10/10 06:30:20;;;;;;;20.38;7.32;;;;;;;;;;5033495;28;20021;-75
2022/10/10 06:32:47;;;;;;;18.40;4.80;;;;;;;;;;5033445;28;20046;-75
2022/10/10 06:35:13;;;;;;;15.98;5.70;;;;;;;;;;5033869;28;20044;-78
2022/10/10 06:37:39;;;;;;;17.23;5.13;;;;;;;;;;5034063;28;20080;-74
2022/10/10 06:40:05;;;;;;;25.95;5.88;;;;;;;;;;5033483;28;20030;-76
2022/10/10 06:42:32;;;;;;;14.45;5.10;;;;;;;;;;5016130;28;20029;-75
2022/10/10 06:44:58;;;;;;;27.13;5.68;;;;;;;;;;5035943;28;20021;-75
2022/10/10 06:47:24;;;;;;;15.27;5.07;;;;;;;;;;5016646;28;20024;-77
2022/10/10 06:49:50;;;;;;;21.60;5.50;;;;;;;;;;5033590;28;20060;-75
2022/10/10 06:52:16;;;;;;;22.33;5.85;;;;;;;;;;5033610;28;20108;-77
2022/10/10 06:54:42;;;;;;;22.45;5.88;;;;;;;;;;5033770;28;20032;-74
2022/10/10 06:57:08;;;;;;;18.92;5.80;;;;;;;;;;5034845;28;20034;-76
2022/10/10 06:59:34;;;;;;;21.60;5.10;;;;;;;;;;5037087;28;20223;-73
2022/10/10 07:02:00;;;;;;;25.85;5.40;;;;;;;;;;5038223;28;20032;-79
2022/10/10 07:04:26;;;;;;;15.30;5.18;;;;;;;;;;5023545;28;20018;-74
2022/10/10 07:06:52;;;;;;;13.32;4.78;;;;;;;;;;5021102;28;20045;-75
2022/10/10 07:09:19;;;;;;;20.52;5.57;;;;;;;;;;5039896;28;20032;-74
2022/10/10 07:11:45;;;;;;;16.77;5.13;;;;;;;;;;5040656;28;20025;-75
2022/10/10 07:14:11;;;;;;;21.13;5.10;;;;;;;;;;5041936;28;20081;-76
2022/10/10 07:16:37;;;;;;;20.40;5.25;;;;;;;;;;5040585;28;20059;-75
2022/10/10 07:19:04;;;;;;;24.50;7.70;;;;;;;;;;5039197;28;20041;-75
2022/10/10 07:21:29;;;;;;;24.73;7.20;;;;;;;;;;5023209;28;20028;-79
2022/10/10 07:23:55;;;;;;;27.23;7.53;;;;;;;;;;5042516;28;20220;-75
2022/10/10 07:26:25;;;;;;;27.13;5.38;;;;;;;;;;5038747;28;20037;-77
2022/10/10 07:28:51;;;;;;;20.50;5.18;;;;;;;;;;5028321;28;20419;-76
2022/10/10 07:31:17;;;;;;;16.38;4.60;;;;;;;;;;5048068;28;20034;-75
2022/10/10 07:33:45;;;;;;;16.10;5.80;;;;;;;;;;5047571;28;20455;-77
2022/10/10 07:36:11;;;;;;;15.20;5.25;;;;;;;;;;5030307;28;20044;-76
2022/10/10 07:38:37;;;;;;;17.45;4.97;;;;;;;;;;5029974;28;20557;-77
2022/10/10 07:41:11;;;;;;;14.68;4.72;;;;;;;;;;5045808;28;20477;-78
2022/10/10 07:43:37;;;;;;;16.13;4.25;;;;;;;;;;5030020;28;20018;-77
2022/10/10 07:46:12;;;;;;;23.52;4.60;;;;;;;;;;5046562;28;20025;-75
2022/10/10 07:48:38;;;;;;;15.40;4.00;;;;;;;;;;5030255;28;20048;-78
2022/10/10 07:51:11;;;;;;;13.98;4.15;;;;;;;;;;5033738;28;20100;-79
2022/10/10 07:53:37;;;;;;;12.93;4.03;;;;;;;;;;5048688;28;20443;-77
2022/10/10 07:56:04;;;;;;;12.38;3.53;;;;;;;;;;5046330;28;20033;-77
2022/10/10 07:58:30;;;;;;;15.63;4.00;;;;;;;;;;5025238;28;20036;-76
2022/10/10 08:01:03;;;;;;;14.57;4.45;;;;;;;;;;5039373;28;20029;-76
2022/10/10 08:03:29;;;;;;;15.77;4.30;;;;;;;;;;5037950;28;20040;-77
2022/10/10 08:05:55;;;;;;;13.48;3.75;;;;;;;;;;5039848;28;20096;-78
2022/10/10 08:08:21;;;;;;;16.40;4.55;;;;;;;;;;5021010;28;20037;-78
2022/10/10 08:10:47;;;;;;;13.68;4.20;;;;;;;;;;5021885;28;20049;-77
2022/10/10 08:13:13;;;;;;;11.57;3.72;;;;;;;;;;5021977;28;20175;-78
2022/10/10 08:15:39;;;;;;;18.30;3.85;;;;;;;;;;5038247;28;20022;-77
2022/10/10 08:18:06;;;;;;;19.48;4.30;;;;;;;;;;5021298;28;20026;-77
2022/10/10 08:20:31;;;;;;;13.15;4.00;;;;;;;;;;5036863;28;20032;-78
2022/10/10 08:22:57;;;;;;;16.85;3.72;;;;;;;;;;5037982;28;20029;-78
2022/10/10 08:25:23;;;;;;;15.38;4.88;;;;;;;;;;5036485;28;20025;-76
2022/10/10 08:27:49;;;;;;;12.40;3.38;;;;;;;;;;5037070;28;20765;-79
2022/10/10 08:30:15;;;;;;;10.95;3.47;;;;;;;;;;5038812;28;20049;-78
2022/10/10 08:32:42;;;;;;;12.50;3.40;;;;;;;;;;5037414;28;20022;-78
2022/10/10 08:35:08;;;;;;;8.63;3.15;;;;;;;;;;5035823;28;20025;-78
2022/10/10 08:37:34;;;;;;;13.50;4.22;;;;;;;;;;5019064;28;20399;-78
2022/10/10 08:40:00;;;;;;;9.82;3.67;;;;;;;;;;5035074;28;20442;-77
2022/10/10 08:42:40;;;;;;;14.52;3.40;;;;;;;;;;5017997;28;20121;-77
2022/10/10 08:45:12;;;;;;;14.18;3.50;;;;;;;;;;5037169;28;20018;-79
2022/10/10 08:47:46;;;;;;;17.33;5.93;;;;;;;;;;5035917;28;20029;-78
2022/10/10 08:50:23;;;;;;;12.70;3.70;;;;;;;;;;5036805;28;20289;-78
2022/10/10 08:52:49;;;;;;;7.65;2.92;;;;;;;;;;5021241;28;20029;-77
2022/10/10 08:55:15;;;;;;;14.90;3.22;;;;;;;;;;5039768;28;20096;-76
2022/10/10 08:57:54;;;;;;;9.02;2.78;;;;;;;;;;5024389;28;20505;-77
2022/10/10 09:00:24;;;;;;;13.80;2.97;;;;;;;;;;5041647;28;20422;-77
2022/10/10 09:02:59;;;;;;;12.55;3.30;;;;;;;;;;5040867;28;20072;-77
2022/10/10 09:05:25;;;;;;;;;;;;;;;;;;5041249;28;20014;-78
2022/10/10 09:07:51;;;;;;;11.93;3.25;;;;;;;;;;5026070;28;20443;-78
2022/10/10 09:10:22;;;;;;;9.88;2.95;;;;;;;;;;5044382;28;20056;-78
2022/10/10 09:12:55;;;;;;;7.90;2.92;;;;;;;;;;5021278;28;20026;-77
2022/10/10 09:15:27;;;;;;;8.27;2.85;;;;;;;;;;5019459;28;20021;-77
2022/10/10 09:17:53;;;;;;;8.32;2.90;;;;;;;;;;5025251;28;20040;-76
2022/10/10 09:20:37;;;;;;;9.77;3.40;;;;;;;;;;5043734;28;20052;-77
2022/10/10 09:23:03;;;;;;;;;;;;;;;;;;5037466;28;20086;-77
2022/10/10 09:25:56;;;;;;;13.95;3.22;;;;;;;;;;5038620;28;19940;-76
2022/10/10 09:28:37;;;;;;;10.38;3.30;;;;;;;;;;5040332;28;20045;-76
2022/10/10 09:31:05;;;;;;;17.13;8.38;;;;;;;;;;5028380;28;20056;-79
2022/10/10 09:33:54;;;;;;;9.82;3.67;;;;;;;;;;5042393;28;20028;-75
2022/10/10 09:36:23;;;;;;;11.43;3.72;;;;;;;;;;5022452;28;20029;-78
2022/10/10 09:38:54;;;;;;;12.07;3.70;;;;;;;;;;5036579;28;20181;-79
2022/10/10 09:41:26;;;;;;;12.73;3.72;;;;;;;;;;5037346;28;20108;-79
2022/10/10 09:43:56;;;;;;;11.70;2.92;;;;;;;;;;5019207;28;20391;-76
2022/10/10 09:46:22;;;;;;;10.90;3.88;;;;;;;;;;5020837;28;20111;-78
2022/10/10 09:48:48;;;;;;;14.60;3.42;;;;;;;;;;5021116;28;20025;-76
2022/10/10 09:51:16;;;;;;;15.50;4.05;;;;;;;;;;5040542;28;20029;-77
2022/10/10 09:53:43;;;;;;;12.80;3.30;;;;;;;;;;5041572;28;20056;-77
2022/10/10 09:56:17;;;;;;;14.05;3.70;;;;;;;;;;5044007;28;20025;-77
2022/10/10 09:58:48;;;;;;;11.30;3.65;;;;;;;;;;5021141;28;20029;-77
2022/10/10 10:01:31;;;;;;;15.50;3.75;;;;;;;;;;5044262;28;20100;-77
2022/10/10 10:04:09;;;;;;;13.70;3.90;;;;;;;;;;5051648;28;20009;-78
2022/10/10 10:06:35;;;;;;;11.30;3.28;;;;;;;;;;5037507;28;20481;-77
2022/10/10 10:09:02;;;;;;;9.90;3.80;;;;;;;;;;5053650;28;20081;-78
2022/10/10 10:11:30;;;;;;;11.05;3.47;;;;;;;;;;5035846;28;20035;-77
2022/10/10 10:13:58;;;;;;;18.27;3.50;;;;;;;;;;5034246;28;20090;-79
2022/10/10 10:16:44;;;;;;;9.18;2.85;;;;;;;;;;5041317;28;20100;-77
2022/10/10 10:19:34;;;;;;;12.73;3.08;;;;;;;;;;5037702;28;20457;-76
2022/10/10 10:22:00;;;;;;;12.00;3.38;;;;;;;;;;5037738;28;20383;-76
2022/10/10 10:24:35;;;;;;;16.70;2.80;;;;;;;;;;5035622;28;20030;-78
2022/10/10 10:27:30;;;;;;;8.82;2.28;;;;;;;;;;5037577;28;20028;-78
2022/10/10 10:29:57;;;;;;;9.85;2.88;;;;;;;;;;5029081;28;20658;-77
2022/10/10 10:32:42;;;;;;;8.82;2.42;;;;;;;;;;5036868;28;20034;-78
2022/10/10 10:35:17;;;;;;;7.25;2.80;;;;;;;;;;5041749;28;20026;-76
2022/10/10 10:37:52;;;;;;;8.65;2.75;;;;;;;;;;5037274;28;20033;-77
2022/10/10 10:40:31;;;;;;;8.25;3.47;;;;;;;;;;5037273;28;20138;-76
2022/10/10 10:42:56;;;;;;;11.70;2.83;;;;;;;;;;5017509;28;20079;-77
2022/10/10 10:45:32;;;;;;;8.88;2.67;;;;;;;;;;5032744;28;20112;-78
2022/10/10 10:48:07;;;;;;;7.50;2.70;;;;;;;;;;5034394;28;20029;-76
2022/10/10 10:50:52;;;;;;;10.10;3.00;;;;;;;;;;5033517;28;20056;-76
2022/10/10 10:53:18;;;;;;;8.85;2.72;;;;;;;;;;5017411;28;20070;-76
2022/10/10 10:55:43;;;;;;;13.68;2.60;;;;;;;;;;5035431;28;20113;-77
2022/10/10 10:58:27;;;;;;;9.90;2.30;;;;;;;;;;5037359;28;20048;-76
2022/10/10 11:00:59;;;;;;;8.82;2.38;;;;;;;;;;5036646;28;20311;-77
2022/10/10 11:03:30;;;;;;;6.80;2.50;;;;;;;;;;5035226;28;20017;-75
2022/10/10 11:05:58;;;;;;;14.52;2.40;;;;;;;;;;5035055;28;20025;-77
2022/10/10 11:08:30;;;;;;;12.32;2.25;;;;;;;;;;5034738;28;20037;-77
2022/10/10 11:10:56;;;;;;;11.60;2.45;;;;;;;;;;5034438;28;20057;-76
2022/10/10 11:13:22;;;;;;;8.48;2.70;;;;;;;;;;5016007;28;20151;-76
2022/10/10 11:15:55;;;;;;;9.05;2.47;;;;;;;;;;5015101;28;20025;-77
2022/10/10 11:18:28;;;;;;;20.05;7.18;;;;;;;;;;5033177;28;20391;-77
2022/10/10 11:21:12;;;;;;;9.80;2.80;;;;;;;;;;5033831;28;20036;-77
2022/10/10 11:23:44;;;;;;;6.53;2.00;;;;;;;;;;5033311;28;20025;-78
2022/10/10 11:26:30;;;;;;;7.90;2.40;;;;;;;;;;5032468;28;20454;-77
2022/10/10 11:29:03;;;;;;;9.82;2.72;;;;;;;;;;5015862;28;20443;-77
2022/10/10 11:31:36;;;;;;;13.52;2.40;;;;;;;;;;5015937;28;20083;-77
2022/10/10 11:34:08;;;;;;;10.23;2.50;;;;;;;;;;5032243;28;20030;-77
2022/10/10 11:36:36;;;;;;;15.35;2.70;;;;;;;;;;5033177;28;20530;-75
2022/10/10 11:39:22;;;;;;;13.95;3.20;;;;;;;;;;5033781;28;20466;-77
2022/10/10 11:41:53;;;;;;;10.95;2.50;;;;;;;;;;5032470;28;20029;-77
2022/10/10 11:44:22;;;;;;;11.25;2.38;;;;;;;;;;5033855;28;20437;-77
2022/10/10 11:46:52;;;;;;;7.10;2.72;;;;;;;;;;5033922;28;20026;-77
2022/10/10 11:49:38;;;;;;;10.23;2.58;;;;;;;;;;5020310;28;20028;-75
2022/10/10 11:52:24;;;;;;;9.23;2.47;;;;;;;;;;5039788;28;20037;-77
2022/10/10 11:54:56;;;;;;;9.77;2.25;;;;;;;;;;5045168;28;20090;-76
2022/10/10 11:57:31;;;;;;;11.95;2.35;;;;;;;;;;5049133;28;20033;-76
2022/10/10 12:00:01;;;;;;;8.07;2.65;;;;;;;;;;5042663;28;20398;-76
2022/10/10 12:02:31;;;;;;;7.00;2.75;;;;;;;;;;5024746;28;20064;-77
2022/10/10 12:04:57;;;;;;;9.70;2.92;;;;;;;;;;5024560;28;20044;-78
2022/10/10 12:07:26;;;;;;;5.70;2.33;;;;;;;;;;5041878;28;20033;-76
2022/10/10 12:09:55;;;;;;;15.52;2.88;;;;;;;;;;5039935;28;20017;-76
2022/10/10 12:12:26;;;;;;;8.70;3.10;;;;;;;;;;5019288;28;20033;-76
2022/10/10 12:14:54;;;;;;;6.50;2.70;;;;;;;;;;5038753;28;20036;-76
2022/10/10 12:17:21;;;;;;;10.25;2.75;;;;;;;;;;5019061;28;20029;-75
2022/10/10 12:19:49;;;;;;;6.75;2.55;;;;;;;;;;5036134;28;20116;-78
2022/10/10 12:22:29;;;;;;;9.13;2.63;;;;;;;;;;5035753;28;20033;-77
2022/10/10 12:25:06;;;;;;;15.00;3.28;;;;;;;;;;5036921;28;20027;-77
2022/10/10 12:27:43;;;;;;;10.35;3.20;;;;;;;;;;5025040;28;20033;-77
2022/10/10 12:30:11;;;;;;;7.82;3.05;;;;;;;;;;5024619;28;20084;-76
2022/10/10 12:32:40;;;;;;;10.88;3.05;;;;;;;;;;5024036;28;20033;-78
2022/10/10 12:35:25;;;;;;;9.63;2.90;;;;;;;;;;5046123;28;20120;-77
2022/10/10 12:37:51;;;;;;;;;;;;;;;;;;5044900;28;20029;-76
2022/10/10 12:40:19;;;;;;;7.85;3.00;;;;;;;;;;5025932;28;19975;-78
2022/10/10 12:42:48;;;;;;;11.30;3.10;;;;;;;;;;5029136;28;20552;-77
2022/10/10 12:45:29;;;;;;;12.20;3.40;;;;;;;;;;5022450;28;20542;-78
2022/10/10 12:47:56;;;;;;;13.35;3.22;;;;;;;;;;5038947;28;20032;-78
2022/10/10 12:50:25;;;;;;;8.10;2.88;;;;;;;;;;5037535;28;20367;-77
2022/10/10 12:52:54;;;;;;;8.10;3.03;;;;;;;;;;5038340;28;20044;-78
2022/10/10 12:55:22;;;;;;;10.30;2.92;;;;;;;;;;5037299;28;20030;-78
2022/10/10 12:57:49;;;;;;;12.65;2.92;;;;;;;;;;5016790;28;20021;-77
2022/10/10 13:00:16;;;;;;;8.73;2.85;;;;;;;;;;5018801;28;20068;-78
2022/10/10 13:02:44;;;;;;;8.48;2.40;;;;;;;;;;5018594;28;20080;-77
2022/10/10 13:05:12;;;;;;;11.48;3.00;;;;;;;;;;5018734;28;20109;-77
2022/10/10 13:07:38;;;;;;;13.93;3.42;;;;;;;;;;5036039;28;20540;-78
2022/10/10 13:10:06;;;;;;;10.68;3.10;;;;;;;;;;5039009;28;20025;-78
2022/10/10 13:12:33;;;;;;;8.95;3.22;;;;;;;;;;5040871;28;20033;-77
2022/10/10 13:14:59;;;;;;;13.13;3.63;;;;;;;;;;5045421;28;20549;-76
2022/10/10 13:17:29;;;;;;;8.85;2.90;;;;;;;;;;5026728;28;20037;-79
2022/10/10 13:20:00;;;;;;;10.90;3.15;;;;;;;;;;5050573;28;20033;-79
2022/10/10 13:22:27;;;;;;;12.98;3.38;;;;;;;;;;5026078;28;20424;-77
2022/10/10 13:24:54;;;;;;;11.00;3.63;;;;;;;;;;5042001;28;20032;-78
2022/10/10 13:27:20;;;;;;;13.65;3.95;;;;;;;;;;5022341;28;20573;-77
2022/10/10 13:29:46;;;;;;;15.43;3.47;;;;;;;;;;5021166;28;20064;-77
2022/10/10 13:32:18;;;;;;;11.73;3.45;;;;;;;;;;5018457;28;20095;-77
2022/10/10 13:34:49;;;;;;;16.60;4.18;;;;;;;;;;5035714;28;20033;-77
2022/10/10 13:37:16;;;;;;;11.25;3.30;;;;;;;;;;5018133;28;20029;-76
2022/10/10 13:39:42;;;;;;;11.48;3.30;;;;;;;;;;5019607;28;20120;-76
2022/10/10 13:42:35;;;;;;;13.57;3.53;;;;;;;;;;5036351;28;20029;-78
2022/10/10 13:45:02;;;;;;;9.15;2.70;;;;;;;;;;5015810;28;20478;-77
2022/10/10 13:47:47;;;;;;;11.70;3.17;;;;;;;;;;5022112;28;20028;-79
2022/10/10 13:50:25;;;;;;;11.93;3.88;;;;;;;;;;5038858;28;20490;-79
2022/10/10 13:53:13;;;;;;;11.95;3.45;;;;;;;;;;5017348;28;20033;-78
2022/10/10 13:55:39;;;;;;;10.63;3.65;;;;;;;;;;5033417;28;20021;-77
2022/10/10 13:58:07;;;;;;;13.48;4.38;;;;;;;;;;5016429;28;20267;-77
2022/10/10 14:00:33;;;;;;;20.67;4.85;;;;;;;;;;5033175;28;20033;-77
2022/10/10 14:02:59;;;;;;;11.88;3.53;;;;;;;;;;5033667;28;20036;-77
2022/10/10 14:05:25;;;;;;;11.82;3.83;;;;;;;;;;5035767;28;20081;-75
2022/10/10 14:07:51;;;;;;;11.65;3.65;;;;;;;;;;5037454;28;20057;-76
2022/10/10 14:10:22;;;;;;;18.23;4.45;;;;;;;;;;5036868;28;20026;-76
2022/10/10 14:12:49;;;;;;;17.58;3.83;;;;;;;;;;5035628;28;20467;-77
2022/10/10 14:15:31;;;;;;;19.50;3.92;;;;;;;;;;5034076;28;20495;-75
2022/10/10 14:17:57;;;;;;;13.45;3.60;;;;;;;;;;5033891;28;20029;-77
2022/10/10 14:20:23;;;;;;;14.05;4.47;;;;;;;;;;5034630;28;20360;-77
2022/10/10 14:22:50;;;;;;;11.82;3.80;;;;;;;;;;5032313;28;20256;-79
2022/10/10 14:25:16;;;;;;;11.48;3.53;;;;;;;;;;5015652;28;20506;-77
2022/10/10 14:27:42;;;;;;;13.60;3.65;;;;;;;;;;5032761;28;20054;-76
2022/10/10 14:30:10;;;;;;;11.55;3.70;;;;;;;;;;5034729;28;20025;-77
2022/10/10 14:32:36;;;;;;;11.77;4.00;;;;;;;;;;5033593;28;20023;-77
2022/10/10 14:35:01;;;;;;;13.30;3.75;;;;;;;;;;5033828;28;20036;-76
2022/10/10 14:37:28;;;;;;;17.55;3.90;;;;;;;;;;5034595;28;20026;-77
2022/10/10 14:39:54;;;;;;;15.90;3.67;;;;;;;;;;5034663;28;20021;-78
2022/10/10 14:42:21;;;;;;;17.05;3.90;;;;;;;;;;5034692;28;20368;-78
2022/10/10 14:44:47;;;;;;;14.77;3.03;;;;;;;;;;5034094;28;20204;-76